createdAt,value
2017-04-18T00:00:04.754Z,95.50
2017-04-18T00:01:04.119Z,95.20
2017-04-18T00:02:03.431Z,95.20
2017-04-18T00:03:02.787Z,95.30
2017-04-18T00:04:02.090Z,95.40
2017-04-18T00:05:01.367Z,95.50
2017-04-18T00:06:00.748Z,95.60
2017-04-18T00:07:00.063Z,95.70
2017-04-18T00:07:59.473Z,95.40
2017-04-18T00:08:58.788Z,95.40
2017-04-18T00:17:11.454Z,95.80
2017-04-18T00:18:15.122Z,95.80
2017-04-18T00:19:14.500Z,95.90
2017-04-18T00:20:13.857Z,95.90
2017-04-18T00:21:13.144Z,95.80
2017-04-18T00:22:12.469Z,95.70
2017-04-18T00:23:11.906Z,95.70
2017-04-18T00:24:11.185Z,95.50
2017-04-18T00:25:10.525Z,95.60
2017-04-18T00:26:09.864Z,95.60
2017-04-18T00:27:09.194Z,95.60
2017-04-18T00:28:08.518Z,95.70
2017-04-18T00:29:07.857Z,95.80
2017-04-18T00:30:07.136Z,95.90
2017-04-18T00:31:06.431Z,95.90
2017-04-18T00:32:05.753Z,95.80
2017-04-18T00:33:05.130Z,95.90
2017-04-18T00:34:04.530Z,95.90
2017-04-18T00:35:03.814Z,95.80
2017-04-18T00:36:03.238Z,95.80
2017-04-18T00:37:02.583Z,95.70
2017-04-18T00:38:01.921Z,95.60
2017-04-18T00:39:01.992Z,95.50
2017-04-18T00:40:01.331Z,95.20
2017-04-18T00:41:01.373Z,95.10
2017-04-18T00:42:00.655Z,95.10
2017-04-18T00:43:00.811Z,95.30
2017-04-18T00:44:00.114Z,95.40
2017-04-18T00:45:00.163Z,95.40
2017-04-18T00:45:59.485Z,95.50
2017-04-18T00:46:58.747Z,95.60
2017-04-18T00:47:58.303Z,95.50
2017-04-18T00:48:57.613Z,95.50
2017-04-18T00:49:56.931Z,95.60
2017-04-18T00:50:56.224Z,95.40
2017-04-18T00:51:55.554Z,95.30
2017-04-18T00:52:54.837Z,95.40
2017-04-18T00:53:54.203Z,95.50
2017-04-18T00:54:53.457Z,95.30
2017-04-18T00:55:52.723Z,95.20
2017-04-18T00:56:52.772Z,95.30
2017-04-18T00:57:52.093Z,95.40
2017-04-18T00:58:51.428Z,95.50
2017-04-18T00:59:50.708Z,95.70
2017-04-18T01:00:49.971Z,95.70
2017-04-18T01:01:49.319Z,95.60
2017-04-18T01:02:48.664Z,95.70
2017-04-18T01:03:47.994Z,95.50
2017-04-18T01:04:47.330Z,95.50
2017-04-18T01:05:46.747Z,95.50
2017-04-18T01:06:46.066Z,95.50
2017-04-18T01:07:45.429Z,95.30
2017-04-18T01:08:45.537Z,95.10
2017-04-18T01:09:44.859Z,95.30
2017-04-18T01:10:44.153Z,95.30
2017-04-18T01:11:43.501Z,95.30
2017-04-18T01:12:42.839Z,95.30
2017-04-18T01:13:42.303Z,95.30
2017-04-18T01:14:41.617Z,95.30
2017-04-18T01:15:40.950Z,95.30
2017-04-18T01:16:40.219Z,95.10
2017-04-18T01:17:39.550Z,95.20
2017-04-18T01:18:38.900Z,95.20
2017-04-18T01:19:38.229Z,95.20
2017-04-18T01:20:38.403Z,95.20
2017-04-18T01:21:38.485Z,95.30
2017-04-18T01:22:37.757Z,95.30
2017-04-18T01:23:37.069Z,95.40
2017-04-18T01:24:37.110Z,95.40
2017-04-18T01:25:36.409Z,95.20
2017-04-18T01:26:35.712Z,95.10
2017-04-18T01:27:35.075Z,95.00
2017-04-18T01:28:34.361Z,95.00
2017-04-18T01:29:33.755Z,95.10
2017-04-18T01:30:33.065Z,95.20
2017-04-18T01:31:32.347Z,95.10
2017-04-18T01:32:31.652Z,95.00
2017-04-18T01:33:30.961Z,94.90
2017-04-18T01:34:31.129Z,95.00
2017-04-18T01:35:30.449Z,95.10
2017-04-18T01:36:29.779Z,95.00
2017-04-18T01:37:29.111Z,95.10
2017-04-18T01:38:28.389Z,95.10
2017-04-18T01:39:27.740Z,95.00
2017-04-18T01:40:32.375Z,94.90
2017-04-18T01:41:37.822Z,94.80
2017-04-18T01:44:47.818Z,94.80
2017-04-18T01:45:52.492Z,94.90
2017-04-18T01:46:51.825Z,94.90
2017-04-18T01:47:51.883Z,94.80
2017-04-18T01:48:51.184Z,95.00
2017-04-18T01:49:50.891Z,94.90
2017-04-18T01:50:50.205Z,94.80
2017-04-18T01:51:49.470Z,95.00
2017-04-18T01:52:48.763Z,95.00
2017-04-18T01:53:48.050Z,95.10
2017-04-18T01:54:47.379Z,95.10
2017-04-18T01:55:46.737Z,95.10
2017-04-18T01:56:46.400Z,95.00
2017-04-18T01:57:45.701Z,95.10
2017-04-18T01:58:45.086Z,95.10
2017-04-18T01:59:44.403Z,95.10
2017-04-18T02:00:43.727Z,95.00
2017-04-18T02:01:43.094Z,95.00
2017-04-18T02:02:42.381Z,94.90
2017-04-18T02:03:41.717Z,94.80
2017-04-18T02:04:41.084Z,94.80
2017-04-18T02:05:40.428Z,94.90
2017-04-18T02:06:39.775Z,94.90
2017-04-18T02:07:39.882Z,94.80
2017-04-18T02:08:39.212Z,94.80
2017-04-18T02:09:38.554Z,94.60
2017-04-18T02:10:37.870Z,94.50
2017-04-18T02:11:37.227Z,94.60
2017-04-18T02:12:36.596Z,94.60
2017-04-18T02:13:35.912Z,94.60
2017-04-18T02:14:35.233Z,94.70
2017-04-18T02:15:34.548Z,94.80
2017-04-18T02:16:33.966Z,94.90
2017-04-18T02:17:33.759Z,94.90
2017-04-18T02:18:33.131Z,94.80
2017-04-18T02:19:32.579Z,94.90
2017-04-18T02:20:31.935Z,94.90
2017-04-18T02:21:31.273Z,94.90
2017-04-18T02:22:31.330Z,94.70
2017-04-18T02:23:30.679Z,94.50
2017-04-18T02:24:29.974Z,94.30
2017-04-18T02:25:29.277Z,94.20
2017-04-18T02:26:28.577Z,94.40
2017-04-18T02:27:28.637Z,94.50
2017-04-18T02:28:27.950Z,94.40
2017-04-18T02:29:27.732Z,94.40
2017-04-18T02:30:27.316Z,94.60
2017-04-18T02:31:26.666Z,94.70
2017-04-18T02:32:25.979Z,94.70
2017-04-18T02:33:25.312Z,94.50
2017-04-18T02:34:24.694Z,94.50
2017-04-18T02:35:24.106Z,94.40
2017-04-18T02:36:23.411Z,94.40
2017-04-18T02:37:22.726Z,94.40
2017-04-18T02:38:22.017Z,94.40
2017-04-18T02:39:22.074Z,94.40
2017-04-18T02:40:21.366Z,94.30
2017-04-18T02:41:20.669Z,94.20
2017-04-18T02:42:20.714Z,94.30
2017-04-18T02:43:19.994Z,94.40
2017-04-18T02:44:19.295Z,94.60
2017-04-18T02:45:18.744Z,94.60
2017-04-18T02:46:18.859Z,94.70
2017-04-18T02:47:18.173Z,94.90
2017-04-18T02:48:17.483Z,94.70
2017-04-18T02:49:16.767Z,94.50
2017-04-18T02:50:16.042Z,94.60
2017-04-18T02:51:15.457Z,94.60
2017-04-18T02:52:14.791Z,94.60
2017-04-18T02:53:14.037Z,94.80
2017-04-18T02:54:13.319Z,94.80
2017-04-18T02:55:12.644Z,94.70
2017-04-18T02:56:12.084Z,94.60
2017-04-18T02:57:11.782Z,94.60
2017-04-18T02:58:11.070Z,94.70
2017-04-18T02:59:10.423Z,94.70
2017-04-18T03:00:09.757Z,94.80
2017-04-18T03:01:09.104Z,94.80
2017-04-18T03:02:08.425Z,94.90
2017-04-18T03:03:07.841Z,94.80
2017-04-18T03:04:07.180Z,94.60
2017-04-18T03:05:06.502Z,94.70
2017-04-18T03:06:06.162Z,94.70
2017-04-18T03:07:05.453Z,94.60
2017-04-18T03:08:04.767Z,94.70
2017-04-18T03:09:04.458Z,94.50
2017-04-18T03:10:03.770Z,94.60
2017-04-18T03:11:03.059Z,94.70
2017-04-18T03:12:02.415Z,94.80
2017-04-18T03:13:01.826Z,94.70
2017-04-18T03:14:01.110Z,94.60
2017-04-18T03:15:00.373Z,94.70
2017-04-18T03:15:59.626Z,94.90
2017-04-18T03:16:59.044Z,94.90
2017-04-18T03:17:58.347Z,95.00
2017-04-18T03:18:57.662Z,95.00
2017-04-18T03:19:57.028Z,95.00
2017-04-18T03:20:56.348Z,95.10
2017-04-18T03:21:55.676Z,95.20
2017-04-18T03:22:55.035Z,95.30
2017-04-18T03:23:54.389Z,95.30
2017-04-18T03:24:53.711Z,95.40
2017-04-18T03:25:53.041Z,95.30
2017-04-18T03:26:53.172Z,95.20
2017-04-18T03:27:52.465Z,95.30
2017-04-18T03:28:51.738Z,95.20
2017-04-18T03:29:51.008Z,95.20
2017-04-18T03:30:50.291Z,95.10
2017-04-18T03:31:49.637Z,95.20
2017-04-18T03:32:49.155Z,95.30
2017-04-18T03:33:48.598Z,95.20
2017-04-18T03:34:47.913Z,95.20
2017-04-18T03:35:47.256Z,95.20
2017-04-18T03:36:46.610Z,95.10
2017-04-18T03:37:46.002Z,94.90
2017-04-18T03:38:45.327Z,94.80
2017-04-18T03:39:44.646Z,94.90
2017-04-18T03:40:43.952Z,95.00
2017-04-18T03:41:43.398Z,95.10
2017-04-18T03:42:42.711Z,95.10
2017-04-18T03:43:42.231Z,95.00
2017-04-18T03:44:41.550Z,95.10
2017-04-18T03:45:41.635Z,95.00
2017-04-18T03:46:40.993Z,94.90
2017-04-18T03:47:40.390Z,95.00
2017-04-18T03:48:39.696Z,94.90
2017-04-18T03:49:39.013Z,94.90
2017-04-18T03:50:39.083Z,94.90
2017-04-18T03:51:38.422Z,95.00
2017-04-18T03:52:37.728Z,95.00
2017-04-18T03:53:37.063Z,94.90
2017-04-18T03:54:36.354Z,94.70
2017-04-18T03:55:35.660Z,94.80
2017-04-18T03:56:34.997Z,94.60
2017-04-18T03:57:34.347Z,94.70
2017-04-18T03:58:33.723Z,94.70
2017-04-18T03:59:33.026Z,94.50
2017-04-18T04:00:32.493Z,94.40
2017-04-18T04:01:32.075Z,94.60
2017-04-18T04:02:31.573Z,94.80
2017-04-18T04:03:30.948Z,94.80
2017-04-18T04:04:30.358Z,95.00
2017-04-18T04:05:29.729Z,94.80
2017-04-18T04:06:29.128Z,94.80
2017-04-18T04:07:28.484Z,94.90
2017-04-18T04:08:27.838Z,94.70
2017-04-18T04:09:27.178Z,94.40
2017-04-18T04:10:26.501Z,94.50
2017-04-18T04:11:25.802Z,94.70
2017-04-18T04:12:25.523Z,94.70
2017-04-18T04:13:24.840Z,94.80
2017-04-18T04:14:24.185Z,94.80
2017-04-18T04:15:24.352Z,94.70
2017-04-18T04:16:23.656Z,94.50
2017-04-18T04:17:23.004Z,94.40
2017-04-18T04:18:22.329Z,94.20
2017-04-18T04:19:21.618Z,94.20
2017-04-18T04:20:21.473Z,94.40
2017-04-18T04:21:20.758Z,94.40
2017-04-18T04:22:20.460Z,94.60
2017-04-18T04:23:19.790Z,94.40
2017-04-18T04:24:19.121Z,94.40
2017-04-18T04:25:18.471Z,94.70
2017-04-18T04:26:17.729Z,94.50
2017-04-18T04:27:17.023Z,94.50
2017-04-18T04:28:16.415Z,94.20
2017-04-18T04:29:15.733Z,94.30
2017-04-18T04:30:15.047Z,94.30
2017-04-18T04:31:14.403Z,94.30
2017-04-18T04:32:13.728Z,94.20
2017-04-18T04:33:13.081Z,93.90
2017-04-18T04:34:12.392Z,93.90
2017-04-18T04:35:12.440Z,93.90
2017-04-18T04:36:11.832Z,93.90
2017-04-18T04:37:11.756Z,93.90
2017-04-18T04:38:11.110Z,93.80
2017-04-18T04:39:10.425Z,93.90
2017-04-18T04:40:09.733Z,94.00
2017-04-18T04:41:09.066Z,93.80
2017-04-18T04:42:08.368Z,93.80
2017-04-18T04:43:07.721Z,93.80
2017-04-18T04:44:07.086Z,93.80
2017-04-18T04:45:06.448Z,93.80
2017-04-18T04:46:05.769Z,93.70
2017-04-18T04:47:05.082Z,93.80
2017-04-18T04:48:04.397Z,93.70
2017-04-18T04:49:03.756Z,93.60
2017-04-18T04:50:03.080Z,93.60
2017-04-18T04:51:02.359Z,93.50
2017-04-18T04:52:01.851Z,93.20
2017-04-18T04:53:01.186Z,93.00
2017-04-18T04:54:00.505Z,93.00
2017-04-18T04:54:59.805Z,93.40
2017-04-18T04:55:59.109Z,93.30
2017-04-18T04:56:58.403Z,93.10
2017-04-18T04:57:57.764Z,93.00
2017-04-18T04:58:57.092Z,92.90
2017-04-18T04:59:56.347Z,92.90
2017-04-18T05:00:55.715Z,93.00
2017-04-18T05:01:55.048Z,92.90
2017-04-18T05:02:54.387Z,92.90
2017-04-18T05:03:53.872Z,93.00
2017-04-18T05:04:53.179Z,93.40
2017-04-18T05:05:52.456Z,93.20
2017-04-18T05:06:51.879Z,93.40
2017-04-18T05:07:51.172Z,93.60
2017-04-18T05:08:50.492Z,93.30
2017-04-18T05:09:50.024Z,93.70
2017-04-18T05:10:49.351Z,93.70
2017-04-18T05:11:48.703Z,93.50
2017-04-18T05:12:47.984Z,93.30
2017-04-18T05:13:47.291Z,92.90
2017-04-18T05:14:46.543Z,92.90
2017-04-18T05:15:45.885Z,92.80
2017-04-18T05:16:45.208Z,92.70
2017-04-18T05:17:44.478Z,92.60
2017-04-18T05:18:43.872Z,92.80
2017-04-18T05:19:43.187Z,92.80
2017-04-18T05:20:42.657Z,92.80
2017-04-18T05:21:41.923Z,93.10
2017-04-18T05:22:41.178Z,92.60
2017-04-18T05:23:40.576Z,92.30
2017-04-18T05:24:40.639Z,92.30
2017-04-18T05:25:39.891Z,92.30
2017-04-18T05:26:39.110Z,92.60
2017-04-18T05:27:38.403Z,92.40
2017-04-18T05:28:37.843Z,92.30
2017-04-18T05:29:37.869Z,92.30
2017-04-18T05:30:37.238Z,92.60
2017-04-18T05:31:37.237Z,92.70
2017-04-18T05:32:36.564Z,92.60
2017-04-18T05:33:35.906Z,92.50
2017-04-18T05:34:35.183Z,92.70
2017-04-18T05:35:34.534Z,92.80
2017-04-18T05:36:33.823Z,92.80
2017-04-18T05:37:33.081Z,92.40
2017-04-18T05:38:32.764Z,92.20
2017-04-18T05:39:32.049Z,92.00
2017-04-18T05:40:31.358Z,92.10
2017-04-18T05:41:30.605Z,92.30
2017-04-18T05:42:29.908Z,92.10
2017-04-18T05:43:29.208Z,92.00
2017-04-18T05:44:28.519Z,91.80
2017-04-18T05:45:28.517Z,91.90
2017-04-18T05:46:27.819Z,91.80
2017-04-18T05:47:27.083Z,91.60
2017-04-18T05:48:26.362Z,92.00
2017-04-18T05:49:25.701Z,91.80
2017-04-18T05:50:25.729Z,91.80
2017-04-18T05:51:24.975Z,91.60
2017-04-18T05:52:24.324Z,91.30
2017-04-18T05:53:23.609Z,91.40
2017-04-18T05:54:23.314Z,91.40
2017-04-18T05:55:22.577Z,91.30
2017-04-18T05:56:21.891Z,91.40
2017-04-18T05:57:22.018Z,91.40
2017-04-18T05:58:21.487Z,91.10
2017-04-18T05:59:20.758Z,91.10
2017-04-18T06:00:20.041Z,90.70
2017-04-18T06:01:19.304Z,90.90
2017-04-18T06:02:18.558Z,90.40
2017-04-18T06:03:17.840Z,90.40
2017-04-18T06:04:17.130Z,90.80
2017-04-18T06:05:16.426Z,90.80
2017-04-18T06:06:15.695Z,90.90
2017-04-18T06:07:15.000Z,91.10
2017-04-18T06:08:14.360Z,91.10
2017-04-18T06:09:13.832Z,90.80
2017-04-18T06:10:13.151Z,91.00
2017-04-18T06:11:12.433Z,90.90
2017-04-18T06:12:12.478Z,91.00
2017-04-18T06:13:11.780Z,91.30
2017-04-18T06:14:11.099Z,91.00
2017-04-18T06:15:10.358Z,90.40
2017-04-18T06:16:10.396Z,90.40
2017-04-18T06:17:09.686Z,90.50
2017-04-18T06:18:08.960Z,90.20
2017-04-18T06:19:08.543Z,90.30
2017-04-18T06:20:07.809Z,90.50
2017-04-18T06:21:07.193Z,90.50
2017-04-18T06:22:06.440Z,90.80
2017-04-18T06:23:05.732Z,90.50
2017-04-18T06:24:05.010Z,90.50
2017-04-18T06:25:04.340Z,90.40
2017-04-18T06:26:03.628Z,90.40
2017-04-18T06:27:03.759Z,90.40
2017-04-18T06:28:03.082Z,90.40
2017-04-18T06:29:02.484Z,90.70
2017-04-18T06:30:01.843Z,90.30
2017-04-18T06:31:01.136Z,90.30
2017-04-18T06:32:00.459Z,90.00
2017-04-18T06:32:59.742Z,89.90
2017-04-18T06:33:59.117Z,89.50
2017-04-18T06:34:58.416Z,89.90
2017-04-18T06:35:57.717Z,89.50
2017-04-18T06:36:56.984Z,89.50
2017-04-18T06:37:56.319Z,89.00
2017-04-18T06:38:55.666Z,89.30
2017-04-18T06:39:55.298Z,89.30
2017-04-18T06:40:54.615Z,89.90
2017-04-18T06:41:53.918Z,90.00
2017-04-18T06:42:53.158Z,90.00
2017-04-18T06:43:59.966Z,89.40
2017-04-18T06:44:59.710Z,88.80
2017-04-18T06:45:58.992Z,88.20
2017-04-18T06:46:58.260Z,87.50
2017-04-18T06:47:57.542Z,87.60
2017-04-18T06:48:56.764Z,87.20
2017-04-18T06:49:56.058Z,86.80
2017-04-18T06:50:55.772Z,86.20
2017-04-18T06:51:55.073Z,85.40
2017-04-18T06:52:54.385Z,85.50
2017-04-18T06:53:54.411Z,85.40
2017-04-18T06:54:53.686Z,85.30
2017-04-18T06:55:53.014Z,85.90
2017-04-18T06:56:52.626Z,86.40
2017-04-18T06:57:51.906Z,85.30
2017-04-18T06:58:51.209Z,85.20
2017-04-18T06:59:50.586Z,85.80
2017-04-18T07:00:49.902Z,85.40
2017-04-18T07:01:49.167Z,85.10
2017-04-18T07:02:52.632Z,85.10
2017-04-18T07:03:51.924Z,85.30
2017-04-18T07:04:51.200Z,84.70
2017-04-18T07:05:50.471Z,84.80
2017-04-18T07:06:49.747Z,85.20
2017-04-18T07:07:49.023Z,85.10
2017-04-18T07:08:48.588Z,85.10
2017-04-18T07:09:47.839Z,85.80
2017-04-18T07:10:47.834Z,85.40
2017-04-18T07:11:47.209Z,83.70
2017-04-18T07:12:46.525Z,81.40
2017-04-18T07:13:45.806Z,80.30
2017-04-18T07:14:45.471Z,79.40
2017-04-18T07:15:44.731Z,78.90
2017-04-18T07:16:44.083Z,77.20
2017-04-18T07:17:43.944Z,77.70
2017-04-18T07:18:43.331Z,78.00
2017-04-18T07:19:42.589Z,77.90
2017-04-18T07:20:42.242Z,77.60
2017-04-18T07:21:41.562Z,77.30
2017-04-18T07:22:41.639Z,77.10
2017-04-18T07:23:41.698Z,77.30
2017-04-18T07:24:41.010Z,77.90
2017-04-18T07:25:40.301Z,77.10
2017-04-18T07:26:39.907Z,76.10
2017-04-18T07:27:39.231Z,75.40
2017-04-18T07:28:38.514Z,75.50
2017-04-18T07:29:37.859Z,75.80
2017-04-18T07:30:37.173Z,76.00
2017-04-18T07:31:36.504Z,75.60
2017-04-18T07:32:36.085Z,76.20
2017-04-18T07:33:35.343Z,77.20
2017-04-18T07:34:34.793Z,76.80
2017-04-18T07:35:34.785Z,78.20
2017-04-18T07:36:34.023Z,76.20
2017-04-18T07:37:33.287Z,76.40
2017-04-18T07:38:32.995Z,76.30
2017-04-18T07:39:33.582Z,76.90
2017-04-18T07:40:32.870Z,76.30
2017-04-18T07:41:32.214Z,76.90
2017-04-18T07:42:31.498Z,77.40
2017-04-18T07:43:30.762Z,78.90
2017-04-18T07:44:30.500Z,78.80
2017-04-18T07:45:29.777Z,79.90
2017-04-18T07:46:29.109Z,79.90
2017-04-18T07:47:28.362Z,80.00
2017-04-18T07:48:27.630Z,80.60
2017-04-18T07:49:26.905Z,80.70
2017-04-18T07:50:27.209Z,81.30
2017-04-18T07:51:27.193Z,80.90
2017-04-18T07:52:26.439Z,81.10
2017-04-18T07:53:25.738Z,80.80
2017-04-18T07:54:24.980Z,80.60
2017-04-18T07:55:24.257Z,81.20
2017-04-18T07:56:23.942Z,81.70
2017-04-18T07:57:23.230Z,81.40
2017-04-18T07:58:23.282Z,80.80
2017-04-18T07:59:23.261Z,80.80
2017-04-18T08:00:22.539Z,80.80
2017-04-18T08:01:21.817Z,80.70
2017-04-18T08:02:21.381Z,80.50
2017-04-18T08:03:20.637Z,80.80
2017-04-18T08:04:19.918Z,80.10
2017-04-18T08:05:19.177Z,80.40
2017-04-18T08:06:18.442Z,79.00
2017-04-18T08:07:17.710Z,78.70
2017-04-18T08:08:17.350Z,79.50
2017-04-18T08:09:17.184Z,79.70
2017-04-18T08:10:16.492Z,79.80
2017-04-18T08:11:15.796Z,80.00
2017-04-18T08:12:15.088Z,79.60
2017-04-18T08:13:15.136Z,78.90
2017-04-18T08:14:14.740Z,77.90
2017-04-18T08:15:14.074Z,77.80
2017-04-18T08:16:14.131Z,76.90
2017-04-18T08:17:13.415Z,77.40
2017-04-18T08:18:12.689Z,77.40
2017-04-18T08:19:12.656Z,77.70
2017-04-18T08:20:12.204Z,76.70
2017-04-18T08:21:11.474Z,76.30
2017-04-18T08:22:10.778Z,76.70
2017-04-18T08:23:10.076Z,75.90
2017-04-18T08:24:09.423Z,76.10
2017-04-18T08:25:08.951Z,75.70
2017-04-18T08:26:08.633Z,74.40
2017-04-18T08:27:07.945Z,74.30
2017-04-18T08:28:07.238Z,74.30
2017-04-18T08:29:06.496Z,74.50
2017-04-18T08:30:05.835Z,75.10
2017-04-18T08:31:05.171Z,75.90
2017-04-18T08:32:05.531Z,76.00
2017-04-18T08:33:04.844Z,76.90
2017-04-18T08:34:04.139Z,77.30
2017-04-18T08:35:03.522Z,77.70
2017-04-18T08:36:02.815Z,78.50
2017-04-18T08:37:02.147Z,78.70
2017-04-18T08:38:01.784Z,78.10
2017-04-18T08:39:01.096Z,77.80
2017-04-18T08:40:00.406Z,77.60
2017-04-18T08:40:59.755Z,77.70
2017-04-18T08:41:59.087Z,78.20
2017-04-18T08:42:58.404Z,78.60
2017-04-18T08:43:58.145Z,79.00
2017-04-18T08:44:58.733Z,78.70
2017-04-18T08:45:58.109Z,79.40
2017-04-18T08:46:57.424Z,80.00
2017-04-18T08:47:56.737Z,80.50
2017-04-18T08:48:56.099Z,81.10
2017-04-18T08:49:56.242Z,81.30
2017-04-18T08:50:55.581Z,80.40
2017-04-18T08:51:55.971Z,80.50
2017-04-18T08:52:55.600Z,79.70
2017-04-18T08:53:54.927Z,79.40
2017-04-18T08:56:18.790Z,79.20
2017-04-18T08:57:19.575Z,79.00
2017-04-18T08:58:19.357Z,79.10
2017-04-18T08:59:18.909Z,79.10
2017-04-18T09:00:18.379Z,79.00
2017-04-18T09:01:17.959Z,78.20
2017-04-18T09:02:17.397Z,77.40
2017-04-18T09:03:16.798Z,77.40
2017-04-18T09:04:16.089Z,77.40
2017-04-18T09:05:15.446Z,77.80
2017-04-18T09:06:14.843Z,78.60
2017-04-18T09:07:15.141Z,79.20
2017-04-18T09:08:14.528Z,79.80
2017-04-18T09:09:13.799Z,79.40
2017-04-18T09:10:14.086Z,79.70
2017-04-18T09:11:13.777Z,79.30
2017-04-18T09:12:13.724Z,79.70
2017-04-18T09:13:13.897Z,81.10
2017-04-18T09:14:13.431Z,82.30
2017-04-18T09:15:12.986Z,82.10
2017-04-18T09:16:12.876Z,80.70
2017-04-18T09:17:12.684Z,81.10
2017-04-18T09:18:12.076Z,80.40
2017-04-18T09:19:11.784Z,79.60
2017-04-18T09:20:11.150Z,78.70
2017-04-18T09:21:10.491Z,77.70
2017-04-18T09:22:09.725Z,77.30
2017-04-18T09:23:09.045Z,77.70
2017-04-18T09:24:08.453Z,77.80
2017-04-18T09:25:08.893Z,78.50
2017-04-18T09:26:08.425Z,79.10
2017-04-18T09:27:07.859Z,77.60
2017-04-18T09:28:07.586Z,76.80
2017-04-18T09:29:07.386Z,76.50
2017-04-18T09:30:07.216Z,76.60
2017-04-18T09:31:07.038Z,76.30
2017-04-18T09:32:06.634Z,76.00
2017-04-18T09:33:06.012Z,76.20
2017-04-18T09:34:05.375Z,76.10
2017-04-18T09:35:04.671Z,75.80
2017-04-18T09:36:04.726Z,75.10
2017-04-18T09:37:04.332Z,74.50
2017-04-18T09:38:03.756Z,75.10
2017-04-18T09:39:03.145Z,74.40
2017-04-18T09:40:03.263Z,74.10
2017-04-18T09:41:02.685Z,73.20
2017-04-18T09:42:02.000Z,72.40
2017-04-18T09:43:01.816Z,72.50
2017-04-18T09:44:01.132Z,72.90
2017-04-18T09:45:00.432Z,73.10
2017-04-18T09:45:59.676Z,72.90
2017-04-18T09:46:58.986Z,71.90
2017-04-18T09:47:58.305Z,71.50
2017-04-18T09:48:58.695Z,71.30
2017-04-18T09:49:58.050Z,70.80
2017-04-18T09:50:57.458Z,71.40
2017-04-18T09:51:56.787Z,71.80
2017-04-18T09:52:56.294Z,71.10
2017-04-18T09:53:56.349Z,71.70
2017-04-18T09:54:55.927Z,71.70
2017-04-18T09:55:55.259Z,71.10
2017-04-18T09:56:54.561Z,70.00
2017-04-18T09:57:54.072Z,69.10
2017-04-18T09:58:53.337Z,68.70
2017-04-18T09:59:52.661Z,67.80
2017-04-18T10:00:52.011Z,67.60
2017-04-18T10:01:51.345Z,68.40
2017-04-18T10:02:51.400Z,67.40
2017-04-18T10:03:50.721Z,67.40
2017-04-18T10:04:50.142Z,67.40
2017-04-18T10:05:49.777Z,67.00
2017-04-18T10:06:49.073Z,66.90
2017-04-18T10:07:48.457Z,66.80
2017-04-18T10:08:47.772Z,66.60
2017-04-18T10:09:47.150Z,66.30
2017-04-18T10:10:46.427Z,66.50
2017-04-18T10:11:46.425Z,65.90
2017-04-18T10:12:45.795Z,65.60
2017-04-18T10:13:45.897Z,65.00
2017-04-18T10:14:45.270Z,65.30
2017-04-18T10:15:44.665Z,65.60
2017-04-18T10:16:44.211Z,65.50
2017-04-18T10:17:43.729Z,65.20
2017-04-18T10:18:42.991Z,65.40
2017-04-18T10:19:42.242Z,65.60
2017-04-18T10:20:41.492Z,66.20
2017-04-18T10:21:41.550Z,66.40
2017-04-18T10:22:42.488Z,65.80
2017-04-18T10:23:42.131Z,66.10
2017-04-18T10:24:41.427Z,65.20
2017-04-18T10:25:40.934Z,65.30
2017-04-18T10:26:40.212Z,64.30
2017-04-18T10:27:39.451Z,64.40
2017-04-18T10:28:38.783Z,63.50
2017-04-18T10:29:38.076Z,62.80
2017-04-18T10:30:37.426Z,63.10
2017-04-18T10:31:36.709Z,63.00
2017-04-18T10:32:36.011Z,63.80
2017-04-18T10:33:35.285Z,62.60
2017-04-18T10:34:35.931Z,61.90
2017-04-18T10:35:35.230Z,60.70
2017-04-18T10:36:34.519Z,60.70
2017-04-18T10:37:33.797Z,58.90
2017-04-18T10:38:33.043Z,58.40
2017-04-18T10:39:32.316Z,58.10
2017-04-18T10:40:31.885Z,57.70
2017-04-18T10:41:31.115Z,57.40
2017-04-18T10:42:30.364Z,57.70
2017-04-18T10:43:29.619Z,57.90
2017-04-18T10:44:29.126Z,58.20
2017-04-18T10:45:28.389Z,59.10
2017-04-18T10:46:28.742Z,60.10
2017-04-18T10:47:27.996Z,60.90
2017-04-18T10:48:27.322Z,61.30
2017-04-18T10:49:26.938Z,61.70
2017-04-18T10:50:26.976Z,62.00
2017-04-18T10:51:26.286Z,62.90
2017-04-18T10:52:26.046Z,63.50
2017-04-18T10:53:25.436Z,63.40
2017-04-18T10:54:24.780Z,63.30
2017-04-18T10:55:24.050Z,64.30
2017-04-18T10:56:24.074Z,64.10
2017-04-18T10:57:23.637Z,64.50
2017-04-18T10:58:23.362Z,64.70
2017-04-18T10:59:23.426Z,65.30
2017-04-18T11:00:22.738Z,65.20
2017-04-18T11:01:22.049Z,65.10
2017-04-18T11:02:22.071Z,64.60
2017-04-18T11:03:21.534Z,65.30
2017-04-18T11:04:21.182Z,65.40
2017-04-18T11:05:20.506Z,65.70
2017-04-18T11:06:19.820Z,65.90
2017-04-18T11:07:19.900Z,66.80
2017-04-18T11:08:19.203Z,66.70
2017-04-18T11:09:18.483Z,66.90
2017-04-18T11:10:18.171Z,67.50
2017-04-18T11:11:17.525Z,67.30
2017-04-18T11:12:16.878Z,66.90
2017-04-18T11:13:16.186Z,65.90
2017-04-18T11:14:16.223Z,66.20
2017-04-18T11:15:15.480Z,65.90
2017-04-18T11:16:15.135Z,64.80
2017-04-18T11:17:14.711Z,64.40
2017-04-18T11:18:14.012Z,64.90
2017-04-18T11:19:13.283Z,64.70
2017-04-18T11:20:12.551Z,65.40
2017-04-18T11:21:11.808Z,66.00
2017-04-18T11:22:11.356Z,66.60
2017-04-18T11:23:10.606Z,65.60
2017-04-18T11:24:12.083Z,64.90
2017-04-18T11:25:11.477Z,64.10
2017-04-18T11:26:10.785Z,64.30
2017-04-18T11:27:10.066Z,65.10
2017-04-18T11:28:09.674Z,64.90
2017-04-18T11:29:08.932Z,64.90
2017-04-18T11:30:08.288Z,64.60
2017-04-18T11:31:07.654Z,64.50
2017-04-18T11:32:06.950Z,64.70
2017-04-18T11:33:06.356Z,64.70
2017-04-18T11:34:06.035Z,65.20
2017-04-18T11:35:05.290Z,65.20
2017-04-18T11:36:04.618Z,63.80
2017-04-18T11:37:03.947Z,62.80
2017-04-18T11:38:03.268Z,62.10
2017-04-18T11:39:02.573Z,62.50
2017-04-18T11:40:02.183Z,63.00
2017-04-18T11:41:01.450Z,63.20
2017-04-18T11:42:00.796Z,63.20
2017-04-18T11:43:00.087Z,61.40
2017-04-18T11:43:59.360Z,60.30
2017-04-18T11:44:58.601Z,60.00
2017-04-18T11:45:58.165Z,59.90
2017-04-18T11:46:57.473Z,59.20
2017-04-18T11:47:57.567Z,59.00
2017-04-18T11:48:56.968Z,59.10
2017-04-18T11:49:56.252Z,58.90
2017-04-18T11:50:55.539Z,58.80
2017-04-18T11:51:55.106Z,58.10
2017-04-18T11:52:54.386Z,58.30
2017-04-18T11:53:53.661Z,58.00
2017-04-18T11:54:52.902Z,57.10
2017-04-18T11:55:52.943Z,57.40
2017-04-18T11:56:52.244Z,57.80
2017-04-18T11:57:51.815Z,57.70
2017-04-18T11:58:51.121Z,57.30
2017-04-18T11:59:50.498Z,57.40
2017-04-18T12:00:49.777Z,58.00
2017-04-18T12:01:49.031Z,57.90
2017-04-18T12:02:48.336Z,57.80
2017-04-18T12:03:47.994Z,58.30
2017-04-18T12:04:47.291Z,59.60
2017-04-18T12:05:46.602Z,60.80
2017-04-18T12:06:45.864Z,61.30
2017-04-18T12:07:45.153Z,61.20
2017-04-18T12:08:44.442Z,61.10
2017-04-18T12:09:44.186Z,60.90
2017-04-18T12:10:43.619Z,61.30
2017-04-18T12:11:42.862Z,61.60
2017-04-18T12:12:42.156Z,61.70
2017-04-18T12:13:41.544Z,61.20
2017-04-18T12:14:40.890Z,61.10
2017-04-18T12:15:40.503Z,61.50
2017-04-18T12:16:39.825Z,61.30
2017-04-18T12:17:39.214Z,61.50
2017-04-18T12:19:00.723Z,61.60
2017-04-18T12:19:59.957Z,59.90
2017-04-18T12:20:59.639Z,59.40
2017-04-18T12:21:58.995Z,59.20
2017-04-18T12:22:58.312Z,59.40
2017-04-18T12:23:57.687Z,59.50
2017-04-18T12:24:57.150Z,59.70
2017-04-18T12:25:56.466Z,59.50
2017-04-18T12:26:56.045Z,59.30
2017-04-18T12:27:55.372Z,58.80
2017-04-18T12:28:54.628Z,58.60
2017-04-18T12:29:54.012Z,58.80
2017-04-18T12:30:53.309Z,58.10
2017-04-18T12:31:52.638Z,58.00
2017-04-18T12:32:53.133Z,57.90
2017-04-18T12:33:52.575Z,57.20
2017-04-18T12:34:55.417Z,56.80
2017-04-18T12:35:54.903Z,56.80
2017-04-18T12:36:55.165Z,57.20
2017-04-18T12:37:54.924Z,57.40
2017-04-18T12:38:54.488Z,57.40
2017-04-18T12:39:53.969Z,57.10
2017-04-18T12:40:53.334Z,55.60
2017-04-18T12:41:52.772Z,55.70
2017-04-18T12:42:52.275Z,55.00
2017-04-18T12:44:14.617Z,54.80
2017-04-18T12:45:14.438Z,55.40
2017-04-18T12:46:13.823Z,55.40
2017-04-18T12:47:13.189Z,56.30
2017-04-18T12:48:12.537Z,57.20
2017-04-18T12:49:11.892Z,56.10
2017-04-18T12:50:11.676Z,55.00
2017-04-18T12:51:11.045Z,55.40
2017-04-18T12:52:10.458Z,55.80
2017-04-18T12:53:09.758Z,55.60
2017-04-18T12:54:09.146Z,55.50
2017-04-18T12:55:08.484Z,55.00
2017-04-18T12:56:08.210Z,54.00
2017-04-18T12:57:07.536Z,52.80